Time;durP1;ratioP1;P1;durP2;ratioP2;P2;SDS_P1;SDS_P2;PMS_P1;PMS_P2;Temp;Humidity;BMP_temperature;BMP_pressure;BME280_temperature;BME280_humidity;BME280_pressure;Samples;Min_cycle;Max_cycle;Signal;HPM_P1;HPM_P2
2021/12/24 00:01:05;;;;;;;126.78;44.53;;;6.60;99.90;;;;;;5082272;28;20448;-58
2021/12/24 00:03:31;;;;;;;126.55;45.05;;;6.60;99.90;;;;;;5085385;28;20040;-60
2021/12/24 00:05:57;;;;;;;129.82;47.33;;;6.70;99.90;;;;;;5078153;28;20032;-59
2021/12/24 00:08:23;;;;;;;102.78;41.25;;;6.70;99.90;;;;;;5080238;28;20033;-58
2021/12/24 00:10:57;;;;;;;104.40;40.53;;;6.80;99.90;;;;;;5086300;28;20039;-59
2021/12/24 00:13:23;;;;;;;119.43;46.63;;;6.80;99.90;;;;;;5071197;28;20036;-61
2021/12/24 00:16:06;;;;;;;123.55;45.72;;;6.80;99.90;;;;;;5070844;28;20404;-59
2021/12/24 00:18:40;;;;;;;117.95;44.38;;;6.90;99.90;;;;;;5071069;28;20112;-58
2021/12/24 00:37:23;;;;;;;118.70;43.63;;;7.20;99.90;;;;;;5073470;28;20044;-60
2021/12/24 00:42:33;;;;;;;124.53;45.83;;;7.20;99.90;;;;;;5086142;28;20040;-60
2021/12/24 00:44:59;;;;;;;134.00;48.03;;;7.20;99.90;;;;;;5071526;28;20047;-61
2021/12/24 00:47:25;;;;;;;112.20;44.07;;;7.20;99.90;;;;;;5088533;28;20298;-58
2021/12/24 00:49:51;;;;;;;;;;;7.20;99.90;;;;;;5075137;28;20044;-60
2021/12/24 00:52:45;;;;;;;125.25;46.22;;;7.30;99.90;;;;;;5071033;28;19916;-60
2021/12/24 00:55:11;;;;;;;114.55;44.40;;;7.30;99.90;;;;;;5086392;28;20040;-58
2021/12/24 00:57:40;;;;;;;106.15;42.83;;;7.40;99.90;;;;;;5072792;28;20692;-60
2021/12/24 01:00:13;;;;;;;109.55;43.92;;;7.40;99.90;;;;;;5084811;28;20105;-60
2021/12/24 01:02:40;;;;;;;107.47;41.92;;;7.40;99.90;;;;;;5087296;28;20411;-60
2021/12/24 01:05:07;;;;;;;123.75;46.13;;;7.40;99.90;;;;;;5077190;28;20086;-60
2021/12/24 01:07:33;;;;;;;105.18;40.50;;;7.40;99.90;;;;;;5086385;28;20139;-59
2021/12/24 01:09:58;;;;;;;97.83;41.50;;;7.40;99.90;;;;;;5070784;28;20548;-60
2021/12/24 01:12:25;;;;;;;83.30;35.97;;;7.40;99.90;;;;;;5073709;28;20326;-60
2021/12/24 01:14:51;;;;;;;;;;;7.40;99.90;;;;;;5077106;28;20051;-60
2021/12/24 01:17:41;;;;;;;101.97;40.97;;;7.40;99.90;;;;;;5074663;28;19987;-59
2021/12/24 01:20:18;;;;;;;104.30;43.17;;;7.40;99.90;;;;;;5065381;28;20203;-60
2021/12/24 01:28:25;;;;;;;78.35;36.00;;;7.50;99.90;;;;;;5082833;28;20078;-61
2021/12/24 01:39:23;;;;;;;86.88;37.92;;;7.60;99.90;;;;;;5090047;28;20492;-61
2021/12/24 01:44:35;;;;;;;84.25;37.90;;;7.60;99.90;;;;;;5081533;28;20126;-60
2021/12/24 01:47:05;;;;;;;81.80;37.88;;;7.60;99.90;;;;;;5079134;28;20515;-60
2021/12/24 01:49:31;;;;;;;90.03;39.42;;;7.60;99.90;;;;;;5072013;28;20037;-58
2021/12/24 01:51:57;;;;;;;86.18;39.60;;;7.70;99.90;;;;;;5082270;28;20115;-59
2021/12/24 01:54:23;;;;;;;70.43;35.25;;;7.70;99.90;;;;;;5084521;28;20036;-60
2021/12/24 01:56:49;;;;;;;69.15;33.22;;;7.70;99.90;;;;;;5081620;28;20040;-60
2021/12/24 01:59:15;;;;;;;79.00;33.87;;;7.70;99.90;;;;;;5075474;28;20036;-59
2021/12/24 02:01:41;;;;;;;76.88;34.58;;;7.70;99.90;;;;;;5086582;28;20048;-60
2021/12/24 02:04:07;;;;;;;70.07;32.78;;;7.80;99.90;;;;;;5092365;28;20040;-58
2021/12/24 02:06:33;;;;;;;63.45;30.50;;;7.80;99.90;;;;;;5076057;28;20045;-61
2021/12/24 02:08:59;;;;;;;67.15;31.63;;;7.80;99.90;;;;;;5074169;28;20047;-60
2021/12/24 02:11:25;;;;;;;50.97;26.55;;;7.80;99.90;;;;;;5080732;28;20082;-61
2021/12/24 02:13:52;;;;;;;50.97;26.25;;;7.80;99.90;;;;;;5073821;28;20089;-60
2021/12/24 02:29:58;;;;;;;42.47;23.30;;;8.10;99.90;;;;;;5090282;28;20044;-61
2021/12/24 02:32:24;;;;;;;44.95;23.23;;;8.10;99.90;;;;;;5089738;28;20039;-60
2021/12/24 02:34:50;;;;;;;49.35;24.73;;;8.10;99.90;;;;;;5083064;28;20538;-60
2021/12/24 02:37:16;;;;;;;51.17;25.83;;;8.10;99.90;;;;;;5089459;28;20489;-59
2021/12/24 02:39:42;;;;;;;52.47;25.50;;;8.20;99.90;;;;;;5092818;28;20044;-60
2021/12/24 02:42:17;;;;;;;47.75;23.80;;;8.20;99.90;;;;;;5077036;28;20111;-59
2021/12/24 02:44:47;;;;;;;48.45;23.05;;;8.20;99.90;;;;;;5092905;28;20043;-59
2021/12/24 02:54:58;;;;;;;44.60;23.67;;;8.30;99.90;;;;;;5093046;28;20044;-60
2021/12/24 02:57:27;;;;;;;43.50;22.43;;;8.30;99.90;;;;;;5074142;28;20106;-60
2021/12/24 03:00:02;;;;;;;46.80;22.48;;;8.30;99.90;;;;;;5086768;28;20061;-60
2021/12/24 03:02:32;;;;;;;53.58;23.42;;;8.40;99.90;;;;;;5073963;28;20049;-59
2021/12/24 03:04:58;;;;;;;41.58;20.75;;;8.30;99.90;;;;;;5079702;28;20562;-59
2021/12/24 03:07:24;;;;;;;42.65;22.52;;;8.40;99.90;;;;;;5085549;28;20385;-61
2021/12/24 03:09:50;;;;;;;45.67;23.33;;;8.40;99.90;;;;;;5072382;28;20041;-61
2021/12/24 03:12:15;;;;;;;41.70;20.08;;;8.40;99.90;;;;;;5084332;28;20033;-61
2021/12/24 03:14:41;;;;;;;42.40;21.53;;;8.40;99.90;;;;;;5076391;28;20485;-60
2021/12/24 03:17:11;;;;;;;35.63;19.23;;;8.40;99.90;;;;;;5086603;28;20440;-61
2021/12/24 03:19:38;;;;;;;44.03;20.75;;;8.40;99.90;;;;;;5074502;28;20489;-59
2021/12/24 03:22:32;;;;;;;39.80;18.90;;;8.40;99.90;;;;;;5083485;28;20203;-60
2021/12/24 03:24:58;;;;;;;31.60;18.60;;;8.30;99.90;;;;;;5072506;28;20048;-60
2021/12/24 03:27:23;;;;;;;35.10;18.03;;;8.40;99.90;;;;;;5071899;28;20040;-61
2021/12/24 03:29:50;;;;;;;28.97;14.83;;;8.40;99.90;;;;;;5072251;28;20044;-61
2021/12/24 03:32:15;;;;;;;;;;;8.40;99.90;;;;;;5072497;28;20386;-60
2021/12/24 03:34:41;;;;;;;31.60;16.70;;;8.40;99.90;;;;;;5071986;28;19916;-59
2021/12/24 03:37:08;;;;;;;32.70;16.92;;;8.40;99.90;;;;;;5071555;28;20040;-61
2021/12/24 03:39:34;;;;;;;30.85;16.85;;;8.40;99.90;;;;;;5074424;28;20390;-58
2021/12/24 03:42:00;;;;;;;38.67;18.13;;;8.40;99.90;;;;;;5084042;28;20496;-59
2021/12/24 03:44:36;;;;;;;33.65;17.48;;;8.40;99.90;;;;;;5082215;28;20091;-60
2021/12/24 03:47:15;;;;;;;31.15;16.50;;;8.40;99.90;;;;;;5072980;28;20158;-58
2021/12/24 03:55:00;;;;;;;32.30;15.65;;;8.40;99.90;;;;;;5076687;28;20044;-60
2021/12/24 03:57:30;;;;;;;27.48;15.55;;;8.40;99.90;;;;;;5087262;28;20040;-60
2021/12/24 03:59:58;;;;;;;28.23;14.88;;;8.50;99.90;;;;;;5084048;28;20040;-60
2021/12/24 04:02:24;;;;;;;27.00;14.48;;;8.50;99.90;;;;;;5086794;28;20115;-60
2021/12/24 04:04:50;;;;;;;25.13;13.52;;;8.40;99.90;;;;;;5083286;28;20232;-61
2021/12/24 04:07:17;;;;;;;26.35;14.50;;;8.40;99.90;;;;;;5073945;28;20549;-59
2021/12/24 04:09:52;;;;;;;30.95;15.27;;;8.50;99.90;;;;;;5083115;28;20039;-59
2021/12/24 04:12:18;;;;;;;32.35;15.88;;;8.50;99.90;;;;;;5082946;28;20037;-61
2021/12/24 04:14:43;;;;;;;32.60;16.63;;;8.50;99.90;;;;;;5077969;28;20032;-61
2021/12/24 04:17:09;;;;;;;34.20;18.43;;;8.50;99.90;;;;;;5074408;28;20093;-60
2021/12/24 04:25:04;;;;;;;46.63;23.08;;;8.70;99.90;;;;;;5076285;28;20433;-61
2021/12/24 04:27:30;;;;;;;49.38;24.30;;;8.70;99.90;;;;;;5087032;28;20446;-61
2021/12/24 04:30:38;;;;;;;44.33;24.60;;;8.70;99.90;;;;;;5072640;28;20032;-61
2021/12/24 04:32:55;;;;;;;50.40;26.52;;;8.70;99.90;;;;;;5079877;28;20063;-61
2021/12/24 04:51:38;;;;;;;51.42;24.75;;;8.70;99.90;;;;;;5068590;28;20041;-60
2021/12/24 05:04:45;;;;;;;61.58;27.02;;;8.70;99.90;;;;;;5071866;28;20464;-61
2021/12/24 05:09:55;;;;;;;67.15;30.55;;;8.70;99.90;;;;;;5076854;28;20048;-60
2021/12/24 05:12:21;;;;;;;69.75;31.25;;;8.60;99.90;;;;;;5071796;28;20032;-61
2021/12/24 05:14:46;;;;;;;71.67;32.67;;;8.60;99.90;;;;;;5075037;28;20036;-61
2021/12/24 05:17:28;;;;;;;71.90;31.80;;;8.60;99.90;;;;;;5082319;28;20093;-59
2021/12/24 05:22:38;;;;;;;77.35;34.88;;;8.60;99.90;;;;;;5071484;28;20045;-61
2021/12/24 05:25:04;;;;;;;77.37;34.20;;;8.60;99.90;;;;;;5079273;28;20039;-60
2021/12/24 05:27:30;;;;;;;80.50;33.25;;;8.60;99.90;;;;;;5076473;28;20071;-61
2021/12/24 05:29:56;;;;;;;74.63;32.70;;;8.60;99.90;;;;;;5081385;28;20059;-61
2021/12/24 05:32:22;;;;;;;77.03;33.25;;;8.60;99.90;;;;;;5086877;28;20111;-60
2021/12/24 05:34:47;;;;;;;70.47;31.20;;;8.50;99.90;;;;;;5070148;28;20040;-60
2021/12/24 05:37:13;;;;;;;79.53;32.42;;;8.50;99.90;;;;;;5085582;28;20036;-60
2021/12/24 05:39:39;;;;;;;70.60;29.70;;;8.60;99.90;;;;;;5072591;28;20040;-61
2021/12/24 05:42:05;;;;;;;79.72;34.30;;;8.60;99.90;;;;;;5086973;28;20048;-59
2021/12/24 05:44:32;;;;;;;;;;;8.50;99.90;;;;;;5071857;28;20052;-59
2021/12/24 05:46:59;;;;;;;67.65;28.27;;;8.60;99.90;;;;;;5075477;28;20366;-61
2021/12/24 05:49:24;;;;;;;66.75;28.52;;;8.50;99.90;;;;;;5071102;28;20044;-61
2021/12/24 05:51:50;;;;;;;51.80;26.33;;;8.50;99.90;;;;;;5075506;28;20051;-61
2021/12/24 05:54:16;;;;;;;64.35;28.98;;;8.50;99.90;;;;;;5084657;28;20044;-61
2021/12/24 05:56:42;;;;;;;64.22;29.77;;;8.60;99.90;;;;;;5081925;28;20047;-61
2021/12/24 05:59:08;;;;;;;58.78;29.80;;;8.50;99.90;;;;;;5069747;28;20119;-60
2021/12/24 06:01:34;;;;;;;67.50;30.17;;;8.60;99.90;;;;;;5076979;28;20111;-60
2021/12/24 06:03:59;;;;;;;70.97;30.60;;;8.60;99.90;;;;;;5082694;28;20389;-59
2021/12/24 06:06:25;;;;;;;75.97;30.70;;;8.60;99.90;;;;;;5074140;28;20048;-61
2021/12/24 06:08:51;;;;;;;73.30;30.30;;;8.50;99.90;;;;;;5088213;28;20036;-61
2021/12/24 06:11:17;;;;;;;79.97;31.55;;;8.60;99.90;;;;;;5079523;28;20520;-61
2021/12/24 06:13:42;;;;;;;63.17;26.88;;;8.50;99.90;;;;;;5074526;28;20039;-59
2021/12/24 06:16:09;;;;;;;69.20;29.48;;;8.50;99.90;;;;;;5070930;28;20040;-61
2021/12/24 06:18:38;;;;;;;58.17;28.15;;;8.60;99.90;;;;;;5088358;28;20075;-59
2021/12/24 06:21:04;;;;;;;60.67;26.58;;;8.50;99.90;;;;;;5080790;28;20044;-61
2021/12/24 06:23:31;;;;;;;65.15;27.85;;;8.50;99.90;;;;;;5086075;28;20040;-61
2021/12/24 06:25:58;;;;;;;52.80;26.83;;;8.50;99.90;;;;;;5089248;28;20047;-61
2021/12/24 06:28:24;;;;;;;55.63;27.58;;;8.50;99.90;;;;;;5071558;28;20048;-60
2021/12/24 06:30:51;;;;;;;53.33;25.92;;;8.50;99.90;;;;;;5070896;28;20055;-61
2021/12/24 06:33:17;;;;;;;;;;;8.50;99.90;;;;;;5074024;28;20413;-61
2021/12/24 06:35:42;;;;;;;51.88;25.55;;;8.60;99.90;;;;;;5070070;28;19916;-61
2021/12/24 06:38:08;;;;;;;57.30;26.63;;;8.50;99.90;;;;;;5090346;28;20043;-61
2021/12/24 06:40:35;;;;;;;58.28;23.55;;;8.50;99.90;;;;;;5083133;28;20124;-61
2021/12/24 06:43:01;;;;;;;55.58;26.00;;;8.50;99.90;;;;;;5084913;28;20085;-59
2021/12/24 06:45:27;;;;;;;58.42;24.65;;;8.50;99.90;;;;;;5085160;28;20036;-61
2021/12/24 06:47:54;;;;;;;53.40;24.50;;;8.50;99.90;;;;;;5079590;28;20123;-61
2021/12/24 06:50:21;;;;;;;48.75;23.70;;;8.50;99.90;;;;;;5088563;28;20075;-60
2021/12/24 06:52:47;;;;;;;59.17;24.67;;;8.50;99.90;;;;;;5084306;28;20037;-62
2021/12/24 06:55:13;;;;;;;53.53;21.95;;;8.50;99.90;;;;;;5082984;28;20032;-61
2021/12/24 06:57:40;;;;;;;49.85;22.20;;;8.50;99.90;;;;;;5090916;28;20048;-58
2021/12/24 07:00:09;;;;;;;47.22;20.70;;;8.50;99.90;;;;;;5082110;28;20047;-61
2021/12/24 07:02:35;;;;;;;47.47;22.52;;;8.50;99.90;;;;;;5089608;28;20519;-61
2021/12/24 07:05:00;;;;;;;44.50;21.05;;;8.50;99.90;;;;;;5085989;28;20045;-59
2021/12/24 07:07:26;;;;;;;54.67;20.20;;;8.50;99.90;;;;;;5079203;28;20126;-61
2021/12/24 07:09:52;;;;;;;47.60;20.53;;;8.50;99.90;;;;;;5084959;28;20032;-61
2021/12/24 07:12:17;;;;;;;45.93;19.43;;;8.50;99.90;;;;;;5081396;28;20037;-60
2021/12/24 07:14:43;;;;;;;46.85;18.13;;;8.50;99.90;;;;;;5088812;28;20660;-59
2021/12/24 07:17:09;;;;;;;42.55;18.63;;;8.50;99.90;;;;;;5085954;28;20036;-59
2021/12/24 07:19:35;;;;;;;47.95;20.00;;;8.50;99.90;;;;;;5092546;28;20039;-61
2021/12/24 07:22:02;;;;;;;38.60;17.65;;;8.50;99.90;;;;;;5084056;28;20041;-61
2021/12/24 07:24:27;;;;;;;;;;;8.50;99.90;;;;;;5091402;28;20051;-61
2021/12/24 07:26:53;;;;;;;47.55;16.30;;;8.40;99.90;;;;;;5087666;28;19920;-60
2021/12/24 07:29:19;;;;;;;46.47;19.17;;;8.40;99.90;;;;;;5092624;28;20185;-61
2021/12/24 07:31:44;;;;;;;47.23;17.57;;;8.40;99.90;;;;;;5081068;28;20249;-61
2021/12/24 07:34:10;;;;;;;39.25;18.52;;;8.40;99.90;;;;;;5090338;28;20396;-61
2021/12/24 07:36:37;;;;;;;42.33;18.33;;;8.40;99.90;;;;;;5078215;28;20036;-61
2021/12/24 07:39:02;;;;;;;;;;;8.40;99.90;;;;;;5078361;28;20036;-61
2021/12/24 07:41:28;;;;;;;37.72;17.20;;;8.40;99.90;;;;;;5074734;28;19916;-61
2021/12/24 07:43:55;;;;;;;49.80;18.87;;;8.30;99.90;;;;;;5072929;28;20045;-60
2021/12/24 07:46:23;;;;;;;44.85;16.55;;;8.40;99.90;;;;;;5085636;28;20040;-59
2021/12/24 07:48:49;;;;;;;43.10;18.23;;;8.40;99.90;;;;;;5079761;28;20037;-60
2021/12/24 07:54:02;;;;;;;42.30;18.75;;;8.30;99.90;;;;;;5079950;28;20081;-61
2021/12/24 07:56:32;;;;;;;34.33;16.63;;;8.30;99.90;;;;;;5081297;28;20081;-61
2021/12/24 07:58:58;;;;;;;42.22;18.40;;;8.30;99.90;;;;;;5066737;28;20040;-60
2021/12/24 08:01:25;;;;;;;45.92;19.42;;;8.30;99.90;;;;;;5077461;28;20048;-60
2021/12/24 08:03:55;;;;;;;52.25;18.33;;;8.30;99.90;;;;;;5080147;28;20452;-60
2021/12/24 08:06:24;;;;;;;45.63;18.27;;;8.30;99.90;;;;;;5083764;28;20127;-60
2021/12/24 08:08:50;;;;;;;33.38;16.17;;;8.20;99.90;;;;;;5078410;28;20071;-60
2021/12/24 08:11:15;;;;;;;35.90;14.68;;;8.30;99.90;;;;;;5079241;28;20094;-60
2021/12/24 08:13:42;;;;;;;46.97;16.05;;;8.20;99.90;;;;;;5071096;28;20040;-60
2021/12/24 08:16:08;;;;;;;32.58;15.07;;;8.20;99.90;;;;;;5072682;28;20047;-61
2021/12/24 08:18:34;;;;;;;29.23;13.75;;;8.30;99.90;;;;;;5075712;28;20051;-61
2021/12/24 08:20:59;;;;;;;43.10;14.90;;;8.30;99.90;;;;;;5073545;28;20493;-61
2021/12/24 08:23:25;;;;;;;31.83;14.43;;;8.30;99.90;;;;;;5071592;28;20040;-60
2021/12/24 08:25:58;;;;;;;42.07;15.27;;;8.20;99.90;;;;;;5071106;28;20032;-60
2021/12/24 08:28:23;;;;;;;33.03;14.70;;;8.20;99.90;;;;;;5071444;28;20397;-60
2021/12/24 08:30:49;;;;;;;39.80;12.20;;;8.20;99.90;;;;;;5071374;28;20037;-60
2021/12/24 08:33:15;;;;;;;41.27;13.80;;;8.30;99.90;;;;;;5070148;28;20282;-60
2021/12/24 08:35:41;;;;;;;31.63;14.43;;;8.20;99.90;;;;;;5069430;28;20116;-60
2021/12/24 08:38:07;;;;;;;32.55;13.57;;;8.20;99.90;;;;;;5070762;28;20120;-60
2021/12/24 08:40:32;;;;;;;41.23;15.93;;;8.30;99.90;;;;;;5070987;28;20037;-58
2021/12/24 08:42:58;;;;;;;35.00;12.67;;;8.30;99.90;;;;;;5070709;28;20040;-59
2021/12/24 08:45:24;;;;;;;37.15;14.45;;;8.30;99.90;;;;;;5070331;28;20047;-60
2021/12/24 08:47:50;;;;;;;34.70;14.67;;;8.30;99.90;;;;;;5070315;28;20083;-58
2021/12/24 08:50:15;;;;;;;32.17;16.80;;;8.30;99.90;;;;;;5070866;28;20405;-59
2021/12/24 08:52:43;;;;;;;39.03;13.77;;;8.30;99.90;;;;;;5069335;28;20086;-58
2021/12/24 08:55:10;;;;;;;39.25;14.25;;;8.30;99.90;;;;;;5070566;28;20222;-59
2021/12/24 08:57:36;;;;;;;33.03;13.52;;;8.20;99.90;;;;;;5070525;28;20040;-59
2021/12/24 09:00:03;;;;;;;37.78;13.40;;;8.30;99.90;;;;;;5069765;28;20049;-58
2021/12/24 09:02:29;;;;;;;40.30;13.45;;;8.30;99.90;;;;;;5070649;28;20040;-60
2021/12/24 09:04:54;;;;;;;35.03;12.23;;;8.30;99.90;;;;;;5070266;28;20029;-60
2021/12/24 09:07:20;;;;;;;30.30;11.87;;;8.20;99.90;;;;;;5070056;28;20040;-60
2021/12/24 09:09:46;;;;;;;36.13;13.83;;;8.30;99.90;;;;;;5068987;28;20043;-60
2021/12/24 09:12:12;;;;;;;35.33;11.37;;;8.30;99.90;;;;;;5069320;28;20043;-60
2021/12/24 09:14:38;;;;;;;52.22;12.73;;;8.20;99.90;;;;;;5069900;28;20101;-58
2021/12/24 09:17:04;;;;;;;40.37;12.70;;;8.30;99.90;;;;;;5069927;28;20409;-60
2021/12/24 09:19:31;;;;;;;32.88;12.18;;;8.30;99.90;;;;;;5070268;28;20040;-60
2021/12/24 09:21:57;;;;;;;35.22;10.75;;;8.30;99.90;;;;;;5069996;28;20089;-60
2021/12/24 09:24:24;;;;;;;;;;;8.30;99.90;;;;;;5070306;28;20028;-60
2021/12/24 09:26:56;;;;;;;42.37;11.53;;;8.30;99.90;;;;;;5069539;28;19920;-60
2021/12/24 09:29:21;;;;;;;38.70;11.50;;;8.40;99.90;;;;;;5069292;28;20045;-60
2021/12/24 09:31:47;;;;;;;43.40;13.60;;;8.30;99.90;;;;;;5078456;28;20028;-58
2021/12/24 09:34:13;;;;;;;48.80;13.30;;;8.40;99.90;;;;;;5072583;28;20033;-60
2021/12/24 09:36:39;;;;;;;;;;;8.40;99.90;;;;;;5070696;28;20500;-60
2021/12/24 09:39:05;;;;;;;36.30;10.68;;;8.40;99.90;;;;;;5086843;28;19923;-60
2021/12/24 09:41:31;;;;;;;33.47;11.30;;;8.40;99.90;;;;;;5083572;28;20036;-60
2021/12/24 09:43:59;;;;;;;35.00;10.98;;;8.40;99.90;;;;;;5072747;28;20048;-60
2021/12/24 09:46:28;;;;;;;27.95;10.43;;;8.40;99.90;;;;;;5073460;28;20040;-60
2021/12/24 09:48:55;;;;;;;31.23;10.43;;;8.40;99.90;;;;;;5071304;28;20031;-59
2021/12/24 09:51:23;;;;;;;;;;;8.40;99.90;;;;;;5070600;28;20048;-60
2021/12/24 09:53:49;;;;;;;39.50;9.02;;;8.40;99.90;;;;;;5083192;28;19920;-60
2021/12/24 09:56:15;;;;;;;32.17;10.38;;;8.50;99.90;;;;;;5077833;28;20025;-60
2021/12/24 09:58:40;;;;;;;39.83;9.67;;;8.50;99.90;;;;;;5080891;28;20031;-60
2021/12/24 10:01:06;;;;;;;29.17;10.00;;;8.50;99.90;;;;;;5078389;28;20056;-61
2021/12/24 10:03:35;;;;;;;23.03;8.17;;;8.50;99.90;;;;;;5083839;28;20040;-60
2021/12/24 10:06:01;;;;;;;25.55;9.13;;;8.50;99.90;;;;;;5089298;28;20044;-60
2021/12/24 10:08:28;;;;;;;28.48;8.57;;;8.50;99.90;;;;;;5065626;28;20048;-56
2021/12/24 10:11:01;;;;;;;27.75;8.82;;;8.50;99.90;;;;;;5076991;28;20047;-58
2021/12/24 10:13:32;;;;;;;29.67;9.75;;;8.50;99.90;;;;;;5072569;28;20067;-59
2021/12/24 10:16:05;;;;;;;30.65;10.43;;;8.50;99.90;;;;;;5071368;28;20054;-58
2021/12/24 10:18:38;;;;;;;27.10;9.48;;;8.50;99.90;;;;;;5079973;28;20075;-59
2021/12/24 10:21:13;;;;;;;32.55;9.73;;;8.60;99.90;;;;;;5070620;28;20408;-59
2021/12/24 10:23:43;;;;;;;25.35;9.60;;;8.60;99.90;;;;;;5079717;28;20045;-59
2021/12/24 10:26:29;;;;;;;21.35;7.07;;;8.60;99.90;;;;;;5075656;28;20044;-59
2021/12/24 10:28:59;;;;;;;29.15;8.77;;;8.60;99.90;;;;;;5086685;28;20070;-58
2021/12/24 10:31:30;;;;;;;20.15;7.95;;;8.60;99.90;;;;;;5076210;28;20044;-59
2021/12/24 10:34:12;;;;;;;21.65;7.22;;;8.60;99.90;;;;;;5075081;28;20032;-59
2021/12/24 10:36:54;;;;;;;18.83;7.38;;;8.60;99.90;;;;;;5079563;28;20054;-60
2021/12/24 10:39:37;;;;;;;17.90;7.70;;;8.60;99.90;;;;;;5079213;28;20055;-59
2021/12/24 10:42:07;;;;;;;16.63;5.70;;;8.60;99.90;;;;;;5074730;28;20047;-59
2021/12/24 10:44:36;;;;;;;18.73;6.50;;;8.60;99.90;;;;;;5071448;28;20036;-58
2021/12/24 10:47:09;;;;;;;19.13;6.20;;;8.70;99.90;;;;;;5069430;28;20044;-60
2021/12/24 10:54:56;;;;;;;24.05;6.53;;;8.60;99.90;;;;;;5065609;28;20115;-59
2021/12/24 10:57:29;;;;;;;20.67;7.80;;;8.70;99.90;;;;;;5075074;28;20437;-60
2021/12/24 10:59:57;;;;;;;22.23;7.47;;;8.70;99.90;;;;;;5076135;28;20278;-60
2021/12/24 11:02:33;;;;;;;26.70;6.97;;;8.70;99.90;;;;;;5085019;28;20115;-60
2021/12/24 11:05:00;;;;;;;25.35;7.18;;;8.70;99.90;;;;;;5082995;28;20044;-60
2021/12/24 11:07:41;;;;;;;;;;;8.70;99.90;;;;;;5075427;28;20116;-61
2021/12/24 11:10:29;;;;;;;27.50;7.13;;;8.70;99.90;;;;;;5063357;28;19916;-61
2021/12/24 11:13:08;;;;;;;21.05;7.10;;;8.70;99.90;;;;;;5084438;28;20032;-61
2021/12/24 11:15:40;;;;;;;26.77;7.88;;;8.70;99.90;;;;;;5074880;28;20324;-62
2021/12/24 11:18:07;;;;;;;20.33;7.30;;;8.60;99.90;;;;;;5079341;28;20040;-62
2021/12/24 11:20:33;;;;;;;20.90;7.90;;;8.60;99.90;;;;;;5085309;28;20048;-61
2021/12/24 11:23:13;;;;;;;21.73;7.00;;;8.70;99.90;;;;;;5076681;28;20051;-61
2021/12/24 11:25:49;;;;;;;29.90;7.22;;;8.60;99.90;;;;;;5058856;28;20094;-60
2021/12/24 11:28:16;;;;;;;28.30;7.82;;;8.60;99.90;;;;;;5059420;28;20075;-60
2021/12/24 11:30:45;;;;;;;27.50;8.20;;;8.70;99.90;;;;;;5074563;28;20035;-60
2021/12/24 11:33:14;;;;;;;22.25;6.75;;;8.70;99.90;;;;;;5074541;28;20077;-58
2021/12/24 11:35:41;;;;;;;25.63;8.13;;;8.70;99.90;;;;;;5074912;28;20456;-59
2021/12/24 11:38:07;;;;;;;24.88;9.50;;;8.60;99.90;;;;;;5057647;28;20244;-58
2021/12/24 11:40:32;;;;;;;25.40;7.45;;;8.70;99.90;;;;;;5060148;28;20405;-60
2021/12/24 11:43:03;;;;;;;30.95;9.73;;;8.70;99.90;;;;;;5078356;28;20043;-59
2021/12/24 11:45:30;;;;;;;28.20;8.02;;;8.60;99.90;;;;;;5070953;28;20041;-58
2021/12/24 11:47:56;;;;;;;;;;;8.60;99.90;;;;;;5069091;28;20127;-60
2021/12/24 11:50:23;;;;;;;27.95;9.20;;;8.60;99.90;;;;;;5078014;28;19916;-58
2021/12/24 11:52:50;;;;;;;29.05;8.50;;;8.60;99.90;;;;;;5069071;28;20504;-61
2021/12/24 11:55:18;;;;;;;28.00;8.75;;;8.60;99.90;;;;;;5079268;28;20043;-59
2021/12/24 11:57:56;;;;;;;35.35;9.93;;;8.60;99.90;;;;;;5084579;28;20119;-57
2021/12/24 12:00:25;;;;;;;27.45;8.80;;;8.60;99.90;;;;;;5074167;28;20096;-59
2021/12/24 12:02:51;;;;;;;26.20;8.60;;;8.60;99.90;;;;;;5053805;28;20051;-58
2021/12/24 12:05:19;;;;;;;28.63;8.48;;;8.60;99.90;;;;;;5069910;28;20811;-59
2021/12/24 12:07:45;;;;;;;21.63;8.65;;;8.60;99.90;;;;;;5067303;28;20058;-59
2021/12/24 12:10:11;;;;;;;;;;;8.60;99.90;;;;;;5081647;28;20370;-58
2021/12/24 12:12:40;;;;;;;24.00;6.95;;;8.60;99.90;;;;;;5075190;28;19916;-59
2021/12/24 12:15:30;;;;;;;1.77;0.65;;;8.60;99.90;;;;;;5074894;28;20040;-59
2021/12/24 12:18:04;;;;;;;1.20;0.30;;;8.40;99.90;;;;;;5069649;28;20044;-60
2021/12/24 12:20:48;;;;;;;2.88;0.30;;;8.30;99.90;;;;;;5063314;28;20059;-60
2021/12/24 12:23:45;;;;;;;0.50;0.38;;;8.10;99.90;;;;;;5078224;28;20064;-58
2021/12/24 12:26:51;;;;;;;0.40;0.30;;;7.90;99.90;;;;;;5069614;28;20040;-59
2021/12/24 12:29:31;;;;;;;0.40;0.30;;;7.80;99.90;;;;;;5017669;28;20037;-60
2021/12/24 12:32:24;;;;;;;1.35;0.28;;;7.70;99.90;;;;;;4992423;28;20568;-59
2021/12/24 12:34:57;;;;;;;2.47;0.30;;;7.60;99.90;;;;;;5042488;28;20056;-59
2021/12/24 12:37:43;;;;;;;0.38;0.30;;;7.60;99.90;;;;;;5046665;28;20043;-58
2021/12/24 12:40:18;;;;;;;0.85;0.50;;;7.50;99.90;;;;;;5072632;28;20040;-61
2021/12/24 12:43:05;;;;;;;0.85;0.40;;;7.40;99.90;;;;;;5069008;28;20044;-59
2021/12/24 12:45:37;;;;;;;1.40;0.38;;;7.40;99.90;;;;;;5070654;28;20085;-58
2021/12/24 12:48:06;;;;;;;0.55;0.40;;;7.40;99.90;;;;;;5080127;28;20048;-60
2021/12/24 12:50:34;;;;;;;2.35;0.32;;;7.40;99.90;;;;;;5074665;28;20451;-56
2021/12/24 12:53:22;;;;;;;0.85;0.50;;;7.40;99.90;;;;;;5076901;28;20040;-56
2021/12/24 12:56:07;;;;;;;0.77;0.50;;;7.30;99.90;;;;;;5073092;28;20036;-57
2021/12/24 12:58:33;;;;;;;1.15;0.60;;;7.30;99.90;;;;;;5071882;28;20032;-60
2021/12/24 13:01:06;;;;;;;0.70;0.40;;;7.30;99.90;;;;;;5077118;28;20045;-60
2021/12/24 13:03:57;;;;;;;0.38;0.30;;;7.30;99.90;;;;;;5078164;28;20052;-59
2021/12/24 13:06:34;;;;;;;0.50;0.40;;;7.20;99.90;;;;;;5063592;28;20578;-60
2021/12/24 13:09:03;;;;;;;1.02;0.50;;;7.30;99.90;;;;;;5069691;28;20047;-60
2021/12/24 13:11:34;;;;;;;0.70;0.40;;;7.30;99.90;;;;;;5068862;28;20040;-58
2021/12/24 13:14:01;;;;;;;0.60;0.47;;;7.20;99.90;;;;;;5065755;28;20037;-60
2021/12/24 13:16:53;;;;;;;2.47;0.55;;;7.20;99.90;;;;;;5067656;28;20040;-58
2021/12/24 13:19:26;;;;;;;0.60;0.50;;;7.20;99.90;;;;;;5068934;28;20051;-58
2021/12/24 13:24:49;;;;;;;1.08;0.95;;;7.20;99.90;;;;;;5061414;28;20468;-59
2021/12/24 13:27:16;;;;;;;0.90;0.70;;;7.10;99.90;;;;;;5066025;28;20040;-60
2021/12/24 13:29:41;;;;;;;;;;;7.10;99.90;;;;;;5072926;28;20466;-60
2021/12/24 13:32:07;;;;;;;0.98;0.88;;;7.10;99.90;;;;;;5072409;28;19931;-60
2021/12/24 13:34:33;;;;;;;1.55;1.10;;;7.10;99.90;;;;;;5077960;28;20036;-60
2021/12/24 13:37:15;;;;;;;1.27;1.17;;;7.10;99.90;;;;;;5079321;28;20052;-59
2021/12/24 13:39:52;;;;;;;1.70;1.60;;;7.00;99.90;;;;;;5083968;28;20044;-58
2021/12/24 13:42:19;;;;;;;1.70;1.60;;;7.00;99.90;;;;;;5066210;28;20037;-59
2021/12/24 13:44:48;;;;;;;1.50;1.40;;;7.00;99.90;;;;;;5073052;28;20034;-57
2021/12/24 13:55:46;;;;;;;1.55;1.30;;;6.90;99.90;;;;;;5074346;28;20523;-58
2021/12/24 13:58:14;;;;;;;1.70;1.60;;;6.90;99.90;;;;;;5074610;28;20535;-58
2021/12/24 14:00:55;;;;;;;1.83;1.70;;;6.90;99.90;;;;;;5075611;28;20119;-57
2021/12/24 14:03:30;;;;;;;2.38;1.92;;;6.90;99.90;;;;;;5086404;28;20047;-59
2021/12/24 14:06:00;;;;;;;2.15;1.83;;;6.90;99.90;;;;;;5081002;28;20048;-60
2021/12/24 14:08:32;;;;;;;2.58;2.38;;;6.90;99.90;;;;;;5073864;28;20065;-59
2021/12/24 14:11:05;;;;;;;2.05;1.85;;;6.90;99.90;;;;;;5073768;28;20032;-59
2021/12/24 14:13:35;;;;;;;2.05;1.85;;;6.80;99.90;;;;;;5070115;28;20044;-62
2021/12/24 14:18:44;;;;;;;2.25;2.00;;;6.80;99.90;;;;;;5076845;28;20333;-61
2021/12/24 14:24:14;;;;;;;1.95;1.85;;;6.80;99.90;;;;;;5072509;28;20400;-60
2021/12/24 14:26:53;;;;;;;2.60;2.28;;;6.80;99.90;;;;;;5073870;28;20040;-61
2021/12/24 14:29:26;;;;;;;2.25;2.15;;;6.80;99.90;;;;;;5063238;28;20123;-61
2021/12/24 14:31:55;;;;;;;3.20;2.03;;;6.80;99.90;;;;;;5062965;28;20049;-60
2021/12/24 14:34:39;;;;;;;3.28;1.70;;;6.80;99.90;;;;;;5084986;28;20035;-61
2021/12/24 14:37:36;;;;;;;2.35;2.00;;;6.80;99.90;;;;;;5073359;28;20048;-60
2021/12/24 14:40:10;;;;;;;1.42;1.33;;;6.80;99.90;;;;;;5068443;28;20109;-58
2021/12/24 14:42:37;;;;;;;2.15;1.90;;;6.80;99.90;;;;;;5076463;28;20414;-60
2021/12/24 14:45:32;;;;;;;1.95;1.73;;;6.80;99.90;;;;;;5082206;28;20610;-58
2021/12/24 14:48:01;;;;;;;1.55;1.33;;;6.80;99.90;;;;;;5080046;28;20040;-59
2021/12/24 14:50:28;;;;;;;3.50;1.98;;;6.80;99.90;;;;;;5080030;28;20448;-59
2021/12/24 14:53:13;;;;;;;1.88;1.50;;;6.80;99.90;;;;;;5072217;28;20090;-59
2021/12/24 14:55:41;;;;;;;2.25;1.83;;;6.70;99.90;;;;;;5070082;28;20040;-60
2021/12/24 14:58:07;;;;;;;2.03;1.58;;;6.80;99.90;;;;;;5075689;28;20413;-58
2021/12/24 15:00:39;;;;;;;1.13;1.02;;;6.70;99.90;;;;;;5077918;28;20450;-57
2021/12/24 15:03:30;;;;;;;1.50;1.40;;;6.70;99.90;;;;;;5070557;28;20527;-59